Airfield :
LOGIN :

Register | Disclaimer

   EN    FR    IT 

 










Legend :    VFR   Marginal VFR   IFR   Intensive IFR   Very Intensive IFR
Visi :
Ceiling :
>= 8 km
>= 3000ft
5 to 8 km
1000 to 3000 ft
1500m to 5 km
500 to 1000 ft
800 to 1500m
200 to 500 ft
< 800m
< 200 ft
Symbols :   Thunderstorms  Fog  Heavy snow  Heavy precipitations  Wind > 20 kt
SIGMETs :     Misc.  Thunderstorms  Icing  Turbulence  Mountain Waves  Volcanic Ashes







- Airport Elevation : 7 ft
- IATA code : XHE
- Download approach charts


LFTH - Hyeres

CURRENT METAR :
  • 240830Z AUTO 12010KT CAVOK 27/22 Q1017 NOSIG

EXPIRED METARs :
  • 240800Z AUTO 12008KT CAVOK 26/22 Q1017 TEMPO 20013KT
  • 240730Z AUTO 09005KT 060V130 CAVOK 27/22 Q1017 TEMPO 20013KT
  • 240700Z AUTO 09007KT 9999 FEW015 26/21 Q1016 NOSIG
  • 240630Z AUTO 03004KT 360V070 CAVOK 26/21 Q1016 NOSIG
  • 240600Z AUTO 04004KT CAVOK 25/21 Q1016 NOSIG
  • 240530Z AUTO 01003KT 9999 FEW011 SCT180 24/22 Q1016 NOSIG

TAF TAF LFTH
Valid from the 23 at 15:00 until the 24 at 15:00 UTC


231400Z 2315/2415 21010KT CAVOK
TEMPO 2315/2321 23015G25KT
BECMG 2321/2323 VRB02KT
PROB40
TEMPO 2400/2405 FEW013
BECMG 2406/2408 11005G15KT
No reported NOTAMs for that airfield.



MET'MAP, your aeronautical weather chart ! - Copyright ORBIFLY December 2007 - Disclaimer

ORBIFLY MET'MAP TEAM :

Programming & Development : Alexandra Zaïnal
Concept & Development : Baudouin d'Aumeries
Co-Development & Prog : Marc-Olivier Méhu
Technical & hardware support : Manuel Goepfert

Contact : metmap@orbifly.com




SOURCES & CREDITS :

   NOAA